sensor_id;sensor_type;location;lat;lon;timestamp;pressure;altitude;pressure_sealevel;temperature;humidity
18509;BME280;9383;50.928;12.116;2022-11-15T00:02:11;98713.31;;;6.85;100.00
18509;BME280;9383;50.928;12.116;2022-11-15T00:04:38;98710.66;;;6.86;100.00
18509;BME280;9383;50.928;12.116;2022-11-15T00:07:04;98716.75;;;6.87;100.00
18509;BME280;9383;50.928;12.116;2022-11-15T00:09:31;98720.28;;;6.87;100.00
18509;BME280;9383;50.928;12.116;2022-11-15T00:11:57;98705.38;;;6.86;100.00
18509;BME280;9383;50.928;12.116;2022-11-15T00:14:24;98702.75;;;6.86;100.00
18509;BME280;9383;50.928;12.116;2022-11-15T00:16:50;98703.59;;;6.87;100.00
18509;BME280;9383;50.928;12.116;2022-11-15T00:19:17;98697.41;;;6.88;100.00
18509;BME280;9383;50.928;12.116;2022-11-15T00:21:44;98701.91;;;6.84;99.92
18509;BME280;9383;50.928;12.116;2022-11-15T00:24:10;98697.53;;;6.83;100.00
18509;BME280;9383;50.928;12.116;2022-11-15T00:26:37;98698.41;;;6.82;100.00
18509;BME280;9383;50.928;12.116;2022-11-15T00:29:03;98699.31;;;6.81;99.58
18509;BME280;9383;50.928;12.116;2022-11-15T00:31:29;98706.41;;;6.79;99.38
18509;BME280;9383;50.928;12.116;2022-11-15T00:33:56;98698.56;;;6.78;100.00
18509;BME280;9383;50.928;12.116;2022-11-15T00:36:23;98707.31;;;6.78;100.00
18509;BME280;9383;50.928;12.116;2022-11-15T00:38:49;98693.22;;;6.79;100.00
18509;BME280;9383;50.928;12.116;2022-11-15T00:41:16;98699.31;;;6.81;100.00
18509;BME280;9383;50.928;12.116;2022-11-15T00:43:42;98693.22;;;6.81;100.00
18509;BME280;9383;50.928;12.116;2022-11-15T00:46:10;98700.22;;;6.82;100.00
18509;BME280;9383;50.928;12.116;2022-11-15T00:48:36;98694.94;;;6.82;100.00
18509;BME280;9383;50.928;12.116;2022-11-15T00:51:03;98695.75;;;6.85;100.00
18509;BME280;9383;50.928;12.116;2022-11-15T00:53:30;98694.84;;;6.86;100.00
18509;BME280;9383;50.928;12.116;2022-11-15T00:55:56;98683.41;;;6.86;100.00
18509;BME280;9383;50.928;12.116;2022-11-15T00:58:22;98689.56;;;6.86;100.00
18509;BME280;9383;50.928;12.116;2022-11-15T01:00:49;98693.94;;;6.87;100.00
18509;BME280;9383;50.928;12.116;2022-11-15T01:03:15;98708.84;;;6.88;100.00
18509;BME280;9383;50.928;12.116;2022-11-15T01:05:42;98704.47;;;6.87;100.00
18509;BME280;9383;50.928;12.116;2022-11-15T01:08:16;98701.84;;;6.87;100.00
18509;BME280;9383;50.928;12.116;2022-11-15T01:10:43;98702.75;;;6.85;100.00
18509;BME280;9383;50.928;12.116;2022-11-15T01:13:09;98698.41;;;6.82;100.00
18509;BME280;9383;50.928;12.116;2022-11-15T01:15:40;98703.69;;;6.82;100.00
18509;BME280;9383;50.928;12.116;2022-11-15T01:18:06;98695.78;;;6.82;100.00
18509;BME280;9383;50.928;12.116;2022-11-15T01:20:33;98692.31;;;6.82;100.00
18509;BME280;9383;50.928;12.116;2022-11-15T01:23:00;98688.84;;;6.80;100.00
18509;BME280;9383;50.928;12.116;2022-11-15T01:25:27;98690.66;;;6.78;100.00
18509;BME280;9383;50.928;12.116;2022-11-15T01:27:54;98686.31;;;6.75;100.00
18509;BME280;9383;50.928;12.116;2022-11-15T01:30:21;98681.06;;;6.73;100.00
18509;BME280;9383;50.928;12.116;2022-11-15T01:32:47;98681.97;;;6.72;100.00
18509;BME280;9383;50.928;12.116;2022-11-15T01:35:14;98682.91;;;6.70;100.00
18509;BME280;9383;50.928;12.116;2022-11-15T01:37:41;98682.06;;;6.68;100.00
18509;BME280;9383;50.928;12.116;2022-11-15T01:40:08;98682.13;;;6.66;100.00
18509;BME280;9383;50.928;12.116;2022-11-15T01:42:35;98686.59;;;6.63;100.00
18509;BME280;9383;50.928;12.116;2022-11-15T01:45:01;98679.63;;;6.60;99.73
18509;BME280;9383;50.928;12.116;2022-11-15T01:47:37;98674.47;;;6.55;100.00
18509;BME280;9383;50.928;12.116;2022-11-15T01:50:17;98676.25;;;6.53;100.00
18509;BME280;9383;50.928;12.116;2022-11-15T01:52:46;98673.69;;;6.52;100.00
18509;BME280;9383;50.928;12.116;2022-11-15T01:55:20;98667.56;;;6.50;100.00
18509;BME280;9383;50.928;12.116;2022-11-15T01:57:50;98666.78;;;6.46;100.00
18509;BME280;9383;50.928;12.116;2022-11-15T02:00:19;98666.84;;;6.43;100.00
18509;BME280;9383;50.928;12.116;2022-11-15T02:02:45;98662.47;;;6.42;100.00
18509;BME280;9383;50.928;12.116;2022-11-15T02:05:12;98677.41;;;6.41;100.00
18509;BME280;9383;50.928;12.116;2022-11-15T02:07:39;98668.66;;;6.41;100.00
18509;BME280;9383;50.928;12.116;2022-11-15T02:10:12;98673.09;;;6.39;100.00
18509;BME280;9383;50.928;12.116;2022-11-15T02:12:39;98668.75;;;6.36;100.00
18509;BME280;9383;50.928;12.116;2022-11-15T02:15:08;98665.28;;;6.34;100.00
18509;BME280;9383;50.928;12.116;2022-11-15T02:20:41;98656.59;;;6.30;100.00
18509;BME280;9383;50.928;12.116;2022-11-15T02:23:31;98656.66;;;6.27;100.00
18509;BME280;9383;50.928;12.116;2022-11-15T02:26:50;98643.56;;;6.24;100.00
18509;BME280;9383;50.928;12.116;2022-11-15T02:32:54;98638.56;;;6.13;100.00
18509;BME280;9383;50.928;12.116;2022-11-15T02:35:44;98628.06;;;6.12;100.00
18509;BME280;9383;50.928;12.116;2022-11-15T02:38:18;98623.69;;;6.11;100.00
18509;BME280;9383;50.928;12.116;2022-11-15T02:41:03;98628.94;;;6.11;100.00
18509;BME280;9383;50.928;12.116;2022-11-15T02:43:42;98634.22;;;6.11;100.00
18509;BME280;9383;50.928;12.116;2022-11-15T02:46:36;98633.31;;;6.12;100.00
18509;BME280;9383;50.928;12.116;2022-11-15T02:49:25;98632.47;;;6.10;100.00
18509;BME280;9383;50.928;12.116;2022-11-15T02:51:55;98640.38;;;6.10;100.00
18509;BME280;9383;50.928;12.116;2022-11-15T02:54:25;98633.38;;;6.09;100.00
18509;BME280;9383;50.928;12.116;2022-11-15T02:56:56;98628.97;;;6.09;100.00
18509;BME280;9383;50.928;12.116;2022-11-15T03:05:25;98637.78;;;6.07;100.00
18509;BME280;9383;50.928;12.116;2022-11-15T03:08:01;98636.94;;;6.06;100.00
18509;BME280;9383;50.928;12.116;2022-11-15T03:10:45;98636.91;;;6.08;100.00
18509;BME280;9383;50.928;12.116;2022-11-15T03:15:57;98629.91;;;6.07;100.00
18509;BME280;9383;50.928;12.116;2022-11-15T03:18:33;98621.16;;;6.06;100.00
18509;BME280;9383;50.928;12.116;2022-11-15T03:21:05;98624.63;;;6.07;100.00
18509;BME280;9383;50.928;12.116;2022-11-15T03:23:33;98627.31;;;6.05;100.00
18509;BME280;9383;50.928;12.116;2022-11-15T03:26:02;98615.06;;;6.04;100.00
18509;BME280;9383;50.928;12.116;2022-11-15T03:28:53;98619.44;;;6.03;100.00
18509;BME280;9383;50.928;12.116;2022-11-15T03:31:22;98614.19;;;6.03;100.00
18509;BME280;9383;50.928;12.116;2022-11-15T03:34:20;98611.59;;;6.00;100.00
18509;BME280;9383;50.928;12.116;2022-11-15T03:36:50;98610.75;;;5.98;100.00
18509;BME280;9383;50.928;12.116;2022-11-15T03:39:17;98604.69;;;5.95;100.00
18509;BME280;9383;50.928;12.116;2022-11-15T03:41:50;98604.72;;;5.93;100.00
18509;BME280;9383;50.928;12.116;2022-11-15T03:44:42;98602.13;;;5.91;100.00
18509;BME280;9383;50.928;12.116;2022-11-15T03:47:25;98607.50;;;5.87;100.00
18509;BME280;9383;50.928;12.116;2022-11-15T03:49:59;98598.78;;;5.85;100.00
18509;BME280;9383;50.928;12.116;2022-11-15T03:52:32;98598.00;;;5.80;100.00
18509;BME280;9383;50.928;12.116;2022-11-15T03:55:01;98600.69;;;5.76;100.00
18509;BME280;9383;50.928;12.116;2022-11-15T03:57:29;98599.94;;;5.71;100.00
18509;BME280;9383;50.928;12.116;2022-11-15T03:59:57;98601.75;;;5.68;100.00
18509;BME280;9383;50.928;12.116;2022-11-15T04:02:24;98592.16;;;5.65;100.00
18509;BME280;9383;50.928;12.116;2022-11-15T04:04:51;98594.84;;;5.63;100.00
18509;BME280;9383;50.928;12.116;2022-11-15T04:07:18;98590.50;;;5.61;100.00
18509;BME280;9383;50.928;12.116;2022-11-15T04:09:45;98595.84;;;5.56;100.00
18509;BME280;9383;50.928;12.116;2022-11-15T04:12:45;98605.59;;;5.51;100.00
18509;BME280;9383;50.928;12.116;2022-11-15T04:15:18;98603.00;;;5.49;100.00
18509;BME280;9383;50.928;12.116;2022-11-15T04:17:53;98611.84;;;5.45;100.00
18509;BME280;9383;50.928;12.116;2022-11-15T04:20:29;98604.03;;;5.41;100.00
18509;BME280;9383;50.928;12.116;2022-11-15T04:23:16;98597.97;;;5.37;100.00
18509;BME280;9383;50.928;12.116;2022-11-15T04:26:07;98599.69;;;5.38;100.00
18509;BME280;9383;50.928;12.116;2022-11-15T04:28:36;98594.44;;;5.38;100.00
18509;BME280;9383;50.928;12.116;2022-11-15T04:31:23;98586.56;;;5.38;100.00
18509;BME280;9383;50.928;12.116;2022-11-15T04:33:50;98583.09;;;5.38;100.00
18509;BME280;9383;50.928;12.116;2022-11-15T04:36:16;98589.19;;;5.38;100.00
18509;BME280;9383;50.928;12.116;2022-11-15T04:39:02;98583.94;;;5.38;100.00
18509;BME280;9383;50.928;12.116;2022-11-15T04:41:28;98577.81;;;5.38;100.00
18509;BME280;9383;50.928;12.116;2022-11-15T04:43:55;98579.56;;;5.37;100.00
18509;BME280;9383;50.928;12.116;2022-11-15T04:46:23;98572.56;;;5.38;100.00
18509;BME280;9383;50.928;12.116;2022-11-15T04:48:51;98569.94;;;5.38;100.00
18509;BME280;9383;50.928;12.116;2022-11-15T04:51:18;98561.19;;;5.37;100.00
18509;BME280;9383;50.928;12.116;2022-11-15T04:53:44;98561.19;;;5.37;100.00
18509;BME280;9383;50.928;12.116;2022-11-15T04:56:11;98555.91;;;5.37;100.00
18509;BME280;9383;50.928;12.116;2022-11-15T04:58:38;98554.13;;;5.39;100.00
18509;BME280;9383;50.928;12.116;2022-11-15T05:01:12;98557.66;;;5.38;100.00
18509;BME280;9383;50.928;12.116;2022-11-15T05:03:41;98555.03;;;5.38;100.00
18509;BME280;9383;50.928;12.116;2022-11-15T05:06:27;98555.00;;;5.40;100.00
18509;BME280;9383;50.928;12.116;2022-11-15T05:08:54;98564.69;;;5.36;100.00
18509;BME280;9383;50.928;12.116;2022-11-15T05:11:21;98559.50;;;5.33;100.00
18509;BME280;9383;50.928;12.116;2022-11-15T05:13:47;98556.06;;;5.31;100.00
18509;BME280;9383;50.928;12.116;2022-11-15T05:16:14;98562.16;;;5.31;100.00
18509;BME280;9383;50.928;12.116;2022-11-15T05:18:41;98553.44;;;5.31;100.00
18509;BME280;9383;50.928;12.116;2022-11-15T05:21:10;98558.69;;;5.31;100.00
18509;BME280;9383;50.928;12.116;2022-11-15T05:23:37;98555.19;;;5.30;100.00
18509;BME280;9383;50.928;12.116;2022-11-15T05:26:05;98546.41;;;5.30;100.00
18509;BME280;9383;50.928;12.116;2022-11-15T05:28:33;98542.94;;;5.28;100.00
18509;BME280;9383;50.928;12.116;2022-11-15T05:31:12;98541.28;;;5.24;100.00
18509;BME280;9383;50.928;12.116;2022-11-15T05:33:40;98547.50;;;5.19;100.00
18509;BME280;9383;50.928;12.116;2022-11-15T05:36:31;98561.59;;;5.15;100.00
18509;BME280;9383;50.928;12.116;2022-11-15T05:38:57;98561.72;;;5.09;100.00
18509;BME280;9383;50.928;12.116;2022-11-15T05:42:13;98565.31;;;5.03;100.00
18509;BME280;9383;50.928;12.116;2022-11-15T05:44:22;98568.03;;;4.99;100.00
18509;BME280;9383;50.928;12.116;2022-11-15T05:46:51;98561.06;;;4.96;100.00
18509;BME280;9383;50.928;12.116;2022-11-15T05:49:21;98561.13;;;4.93;100.00
18509;BME280;9383;50.928;12.116;2022-11-15T05:51:50;98569.03;;;4.91;100.00
18509;BME280;9383;50.928;12.116;2022-11-15T05:54:18;98564.72;;;4.87;100.00
18509;BME280;9383;50.928;12.116;2022-11-15T05:56:46;98569.13;;;4.87;100.00
18509;BME280;9383;50.928;12.116;2022-11-15T05:59:13;98571.75;;;4.87;100.00
18509;BME280;9383;50.928;12.116;2022-11-15T06:01:40;98566.47;;;4.88;100.00
18509;BME280;9383;50.928;12.116;2022-11-15T06:04:06;98559.47;;;4.89;100.00
18509;BME280;9383;50.928;12.116;2022-11-15T06:06:33;98563.78;;;4.91;100.00
18509;BME280;9383;50.928;12.116;2022-11-15T06:08:59;98561.13;;;4.93;100.00
18509;BME280;9383;50.928;12.116;2022-11-15T06:11:26;98559.34;;;4.95;100.00
18509;BME280;9383;50.928;12.116;2022-11-15T06:13:52;98557.53;;;4.97;100.00
18509;BME280;9383;50.928;12.116;2022-11-15T06:16:19;98560.16;;;4.99;100.00
18509;BME280;9383;50.928;12.116;2022-11-15T06:18:45;98559.22;;;5.01;100.00
18509;BME280;9383;50.928;12.116;2022-11-15T06:21:12;98558.28;;;5.04;100.00
18509;BME280;9383;50.928;12.116;2022-11-15T06:23:38;98560.03;;;5.05;100.00
18509;BME280;9383;50.928;12.116;2022-11-15T06:26:05;98564.41;;;5.06;100.00
18509;BME280;9383;50.928;12.116;2022-11-15T06:28:33;98571.34;;;5.09;100.00
18509;BME280;9383;50.928;12.116;2022-11-15T06:31:04;98566.06;;;5.10;100.00
18509;BME280;9383;50.928;12.116;2022-11-15T06:33:31;98563.38;;;5.13;100.00
18509;BME280;9383;50.928;12.116;2022-11-15T06:36:09;98564.22;;;5.15;100.00
18509;BME280;9383;50.928;12.116;2022-11-15T06:38:36;98567.72;;;5.16;100.00
18509;BME280;9383;50.928;12.116;2022-11-15T06:41:04;98566.81;;;5.18;100.00
18509;BME280;9383;50.928;12.116;2022-11-15T06:43:32;98572.00;;;5.21;100.00
18509;BME280;9383;50.928;12.116;2022-11-15T06:45:59;98571.94;;;5.25;100.00
18509;BME280;9383;50.928;12.116;2022-11-15T06:48:30;98573.63;;;5.27;100.00
18509;BME280;9383;50.928;12.116;2022-11-15T06:50:59;98585.78;;;5.33;100.00
18509;BME280;9383;50.928;12.116;2022-11-15T06:53:27;98582.28;;;5.34;100.00
18509;BME280;9383;50.928;12.116;2022-11-15T06:55:59;98581.22;;;5.43;100.00
18509;BME280;9383;50.928;12.116;2022-11-15T06:58:27;98588.94;;;5.51;100.00
18509;BME280;9383;50.928;12.116;2022-11-15T07:00:54;98589.69;;;5.57;100.00
18509;BME280;9383;50.928;12.116;2022-11-15T07:03:24;98595.63;;;5.67;100.00
18509;BME280;9383;50.928;12.116;2022-11-15T07:05:54;98591.22;;;5.69;100.00
18509;BME280;9383;50.928;12.116;2022-11-15T07:08:23;98583.19;;;5.74;100.00
18509;BME280;9383;50.928;12.116;2022-11-15T07:10:51;98583.09;;;5.78;100.00
18509;BME280;9383;50.928;12.116;2022-11-15T07:13:18;98587.44;;;5.83;100.00
18509;BME280;9383;50.928;12.116;2022-11-15T07:15:44;98586.44;;;5.87;100.00
18509;BME280;9383;50.928;12.116;2022-11-15T07:18:11;98583.72;;;5.91;100.00
18509;BME280;9383;50.928;12.116;2022-11-15T07:20:37;98584.47;;;5.97;100.00
18509;BME280;9383;50.928;12.116;2022-11-15T07:23:11;98584.41;;;6.01;100.00
18509;BME280;9383;50.928;12.116;2022-11-15T07:25:38;98582.41;;;6.13;100.00
18509;BME280;9383;50.928;12.116;2022-11-15T07:28:04;98581.97;;;6.31;100.00
18509;BME280;9383;50.928;12.116;2022-11-15T07:30:31;98573.47;;;6.56;100.00
18509;BME280;9383;50.928;12.116;2022-11-15T07:33:01;98575.44;;;6.84;100.00
18509;BME280;9383;50.928;12.116;2022-11-15T07:35:29;98573.63;;;7.20;100.00
18509;BME280;9383;50.928;12.116;2022-11-15T07:38:01;98578.78;;;7.56;100.00
18509;BME280;9383;50.928;12.116;2022-11-15T07:40:30;98569.16;;;7.85;100.00
18509;BME280;9383;50.928;12.116;2022-11-15T07:43:05;98577.84;;;8.19;100.00
18509;BME280;9383;50.928;12.116;2022-11-15T07:45:32;98577.19;;;8.39;100.00
18509;BME280;9383;50.928;12.116;2022-11-15T07:48:02;98573.97;;;8.57;95.55
18509;BME280;9383;50.928;12.116;2022-11-15T07:50:30;98567.03;;;8.82;95.06
18509;BME280;9383;50.928;12.116;2022-11-15T07:52:58;98571.63;;;9.02;95.21
18509;BME280;9383;50.928;12.116;2022-11-15T07:55:27;98566.03;;;9.11;90.35
18509;BME280;9383;50.928;12.116;2022-11-15T07:58:06;98570.50;;;9.35;90.41
18509;BME280;9383;50.928;12.116;2022-11-15T08:00:35;98565.41;;;9.54;91.42
18509;BME280;9383;50.928;12.116;2022-11-15T08:03:07;98563.88;;;9.70;91.24
18509;BME280;9383;50.928;12.116;2022-11-15T08:05:36;98563.34;;;9.86;90.86
18509;BME280;9383;50.928;12.116;2022-11-15T08:08:04;98569.88;;;9.99;89.41
18509;BME280;9383;50.928;12.116;2022-11-15T08:10:30;98579.06;;;10.13;88.22
18509;BME280;9383;50.928;12.116;2022-11-15T08:13:02;98570.81;;;10.21;86.34
18509;BME280;9383;50.928;12.116;2022-11-15T08:15:29;98578.50;;;10.27;85.09
18509;BME280;9383;50.928;12.116;2022-11-15T08:17:58;98560.59;;;10.34;82.68
18509;BME280;9383;50.928;12.116;2022-11-15T08:20:26;98558.63;;;10.39;81.76
18509;BME280;9383;50.928;12.116;2022-11-15T08:22:52;98557.94;;;10.34;78.55
18509;BME280;9383;50.928;12.116;2022-11-15T08:25:20;98558.88;;;10.33;77.61
18509;BME280;9383;50.928;12.116;2022-11-15T08:27:47;98558.88;;;10.33;77.72
18509;BME280;9383;50.928;12.116;2022-11-15T08:30:13;98557.09;;;10.33;77.07
18509;BME280;9383;50.928;12.116;2022-11-15T08:32:42;98549.75;;;10.40;77.26
18509;BME280;9383;50.928;12.116;2022-11-15T08:35:09;98544.22;;;10.46;77.14
18509;BME280;9383;50.928;12.116;2022-11-15T08:37:36;98542.38;;;10.48;76.70
18509;BME280;9383;50.928;12.116;2022-11-15T08:40:04;98539.66;;;10.50;75.25
18509;BME280;9383;50.928;12.116;2022-11-15T08:42:30;98538.69;;;10.52;75.02
18509;BME280;9383;50.928;12.116;2022-11-15T08:44:57;98534.31;;;10.51;75.07
18509;BME280;9383;50.928;12.116;2022-11-15T08:47:24;98526.22;;;10.54;74.24
18509;BME280;9383;50.928;12.116;2022-11-15T08:49:51;98524.22;;;10.60;75.21
18509;BME280;9383;50.928;12.116;2022-11-15T08:52:18;98523.25;;;10.62;74.85
18509;BME280;9383;50.928;12.116;2022-11-15T08:54:45;98526.50;;;10.69;75.08
18509;BME280;9383;50.928;12.116;2022-11-15T08:57:12;98519.22;;;10.74;74.53
18509;BME280;9383;50.928;12.116;2022-11-15T08:59:39;98526.97;;;10.79;74.55
18509;BME280;9383;50.928;12.116;2022-11-15T09:02:06;98519.31;;;10.93;74.83
18509;BME280;9383;50.928;12.116;2022-11-15T09:04:32;98522.22;;;11.08;75.58
18509;BME280;9383;50.928;12.116;2022-11-15T09:06:59;98516.44;;;11.19;74.98
18509;BME280;9383;50.928;12.116;2022-11-15T09:09:25;98520.84;;;11.18;73.19
18509;BME280;9383;50.928;12.116;2022-11-15T09:11:53;98517.75;;;11.29;73.46
18509;BME280;9383;50.928;12.116;2022-11-15T09:14:19;98520.78;;;11.40;73.38
18509;BME280;9383;50.928;12.116;2022-11-15T09:16:46;98514.13;;;11.51;73.29
18509;BME280;9383;50.928;12.116;2022-11-15T09:19:12;98523.94;;;11.49;70.81
18509;BME280;9383;50.928;12.116;2022-11-15T09:21:41;98515.66;;;11.57;70.74
18509;BME280;9383;50.928;12.116;2022-11-15T09:24:07;98519.00;;;11.60;70.11
18509;BME280;9383;50.928;12.116;2022-11-15T09:26:34;98504.31;;;11.72;71.14
18509;BME280;9383;50.928;12.116;2022-11-15T09:29:01;98500.97;;;11.86;71.48
18509;BME280;9383;50.928;12.116;2022-11-15T09:31:28;98496.94;;;11.96;71.20
18509;BME280;9383;50.928;12.116;2022-11-15T09:33:56;98496.25;;;12.12;71.84
18509;BME280;9383;50.928;12.116;2022-11-15T09:36:23;98499.09;;;12.27;71.40
18509;BME280;9383;50.928;12.116;2022-11-15T09:38:50;98501.44;;;12.33;68.60
18509;BME280;9383;50.928;12.116;2022-11-15T09:47:30;98496.63;;;12.59;67.89
18509;BME280;9383;50.928;12.116;2022-11-15T09:49:58;98497.41;;;12.61;66.32
18509;BME280;9383;50.928;12.116;2022-11-15T09:52:26;98497.88;;;12.69;66.33
18509;BME280;9383;50.928;12.116;2022-11-15T09:54:57;98490.75;;;12.70;65.61
18509;BME280;9383;50.928;12.116;2022-11-15T10:05:25;98476.28;;;12.93;66.68
18509;BME280;9383;50.928;12.116;2022-11-15T10:08:13;98479.72;;;12.95;65.00
18509;BME280;9383;50.928;12.116;2022-11-15T10:10:48;98469.63;;;13.02;65.09
18509;BME280;9383;50.928;12.116;2022-11-15T10:13:25;98468.66;;;13.03;64.88
18509;BME280;9383;50.928;12.116;2022-11-15T10:15:54;98471.69;;;13.13;65.78
18509;BME280;9383;50.928;12.116;2022-11-15T10:18:50;98462.13;;;13.26;67.07
18509;BME280;9383;50.928;12.116;2022-11-15T10:21:24;98457.00;;;13.39;68.02
18509;BME280;9383;50.928;12.116;2022-11-15T10:24:26;98447.69;;;13.48;67.31
18509;BME280;9383;50.928;12.116;2022-11-15T10:26:56;98447.25;;;13.56;67.55
18509;BME280;9383;50.928;12.116;2022-11-15T10:29:24;98441.41;;;13.65;67.59
18509;BME280;9383;50.928;12.116;2022-11-15T10:31:51;98431.28;;;13.72;67.31
18509;BME280;9383;50.928;12.116;2022-11-15T10:34:20;98428.09;;;13.81;68.03
18509;BME280;9383;50.928;12.116;2022-11-15T10:36:57;98419.75;;;13.87;67.39
18509;BME280;9383;50.928;12.116;2022-11-15T10:39:24;98422.91;;;13.94;66.72
18509;BME280;9383;50.928;12.116;2022-11-15T10:41:51;98421.63;;;14.01;66.28
18509;BME280;9383;50.928;12.116;2022-11-15T10:44:23;98422.66;;;13.99;61.95
18509;BME280;9383;50.928;12.116;2022-11-15T10:49:24;98418.78;;;14.04;63.16
18509;BME280;9383;50.928;12.116;2022-11-15T10:54:46;98411.22;;;14.13;62.80
18509;BME280;9383;50.928;12.116;2022-11-15T10:57:20;98415.66;;;14.12;62.22
18509;BME280;9383;50.928;12.116;2022-11-15T10:59:51;98411.41;;;14.10;61.65
18509;BME280;9383;50.928;12.116;2022-11-15T11:04:57;98406.72;;;14.13;62.04
18509;BME280;9383;50.928;12.116;2022-11-15T11:07:32;98406.66;;;14.15;61.35
18509;BME280;9383;50.928;12.116;2022-11-15T11:10:27;98406.13;;;14.24;63.22
18509;BME280;9383;50.928;12.116;2022-11-15T11:12:54;98402.31;;;14.28;62.96
18509;BME280;9383;50.928;12.116;2022-11-15T11:15:24;98397.66;;;14.32;61.53
18509;BME280;9383;50.928;12.116;2022-11-15T11:20:37;98392.56;;;14.43;62.32
18509;BME280;9383;50.928;12.116;2022-11-15T11:23:32;98387.09;;;14.45;61.16
18509;BME280;9383;50.928;12.116;2022-11-15T11:29:02;98383.06;;;14.54;59.81
18509;BME280;9383;50.928;12.116;2022-11-15T11:31:53;98380.28;;;14.55;60.18
18509;BME280;9383;50.928;12.116;2022-11-15T11:43:06;98374.38;;;14.50;58.00
18509;BME280;9383;50.928;12.116;2022-11-15T11:46:25;98364.81;;;14.46;59.17
18509;BME280;9383;50.928;12.116;2022-11-15T11:49:09;98360.34;;;14.46;59.22
18509;BME280;9383;50.928;12.116;2022-11-15T11:54:42;98345.19;;;14.47;58.58
18509;BME280;9383;50.928;12.116;2022-11-15T11:57:25;98352.16;;;14.49;59.51
18509;BME280;9383;50.928;12.116;2022-11-15T12:00:09;98340.47;;;14.52;59.15
18509;BME280;9383;50.928;12.116;2022-11-15T12:02:53;98346.47;;;14.56;58.68
18509;BME280;9383;50.928;12.116;2022-11-15T12:11:20;98332.75;;;14.62;58.05
18509;BME280;9383;50.928;12.116;2022-11-15T12:13:56;98324.53;;;14.65;59.03
18509;BME280;9383;50.928;12.116;2022-11-15T12:16:29;98327.22;;;14.65;58.00
18509;BME280;9383;50.928;12.116;2022-11-15T12:19:00;98321.88;;;14.65;58.14
18509;BME280;9383;50.928;12.116;2022-11-15T12:21:49;98318.94;;;14.70;58.29
18509;BME280;9383;50.928;12.116;2022-11-15T12:26:57;98323.81;;;14.77;58.15
18509;BME280;9383;50.928;12.116;2022-11-15T12:31:56;98313.94;;;14.80;57.48
18509;BME280;9383;50.928;12.116;2022-11-15T12:34:40;98301.34;;;14.82;58.20
18509;BME280;9383;50.928;12.116;2022-11-15T12:45:30;98280.97;;;14.81;57.48
18509;BME280;9383;50.928;12.116;2022-11-15T13:22:46;98245.44;;;15.08;56.53
18509;BME280;9383;50.928;12.116;2022-11-15T13:30:57;98254.25;;;15.23;56.95
18509;BME280;9383;50.928;12.116;2022-11-15T13:33:36;98246.69;;;15.29;57.33
18509;BME280;9383;50.928;12.116;2022-11-15T13:36:31;98251.66;;;15.36;57.20
18509;BME280;9383;50.928;12.116;2022-11-15T13:39:23;98240.66;;;15.40;57.53
18509;BME280;9383;50.928;12.116;2022-11-15T13:41:52;98239.41;;;15.46;58.00
18509;BME280;9383;50.928;12.116;2022-11-15T13:44:21;98240.44;;;15.43;55.80
18509;BME280;9383;50.928;12.116;2022-11-15T13:46:48;98240.66;;;15.40;55.40
18509;BME280;9383;50.928;12.116;2022-11-15T13:49:14;98233.69;;;15.38;55.63
18509;BME280;9383;50.928;12.116;2022-11-15T13:51:50;98232.06;;;15.35;56.02
18509;BME280;9383;50.928;12.116;2022-11-15T13:54:33;98232.06;;;15.35;56.66
18509;BME280;9383;50.928;12.116;2022-11-15T13:57:11;98228.66;;;15.33;57.01
18509;BME280;9383;50.928;12.116;2022-11-15T13:59:47;98226.94;;;15.32;57.47
18509;BME280;9383;50.928;12.116;2022-11-15T14:02:18;98220.19;;;15.26;57.47
18509;BME280;9383;50.928;12.116;2022-11-15T14:04:50;98218.59;;;15.24;58.15
18509;BME280;9383;50.928;12.116;2022-11-15T14:07:21;98219.00;;;15.17;58.11
18509;BME280;9383;50.928;12.116;2022-11-15T14:09:49;98221.97;;;15.13;58.51
18509;BME280;9383;50.928;12.116;2022-11-15T14:12:31;98214.47;;;15.05;58.39
18509;BME280;9383;50.928;12.116;2022-11-15T14:15:24;98221.25;;;14.96;58.48
18509;BME280;9383;50.928;12.116;2022-11-15T14:17:52;98213.84;;;14.87;58.30
18509;BME280;9383;50.928;12.116;2022-11-15T14:20:33;98216.13;;;14.79;58.76
18509;BME280;9383;50.928;12.116;2022-11-15T14:26:33;98200.41;;;14.59;59.56
18509;BME280;9383;50.928;12.116;2022-11-15T14:31:49;98204.19;;;14.42;60.18
18509;BME280;9383;50.928;12.116;2022-11-15T14:34:15;98201.97;;;14.34;60.25
18509;BME280;9383;50.928;12.116;2022-11-15T14:36:42;98199.78;;;14.27;60.56
18509;BME280;9383;50.928;12.116;2022-11-15T14:39:09;98200.25;;;14.19;60.54
18509;BME280;9383;50.928;12.116;2022-11-15T14:41:36;98193.63;;;14.12;60.92
18509;BME280;9383;50.928;12.116;2022-11-15T14:44:08;98194.16;;;14.02;61.29
18509;BME280;9383;50.928;12.116;2022-11-15T14:46:36;98192.94;;;13.93;61.38
18509;BME280;9383;50.928;12.116;2022-11-15T14:49:05;98187.19;;;13.85;61.61
18509;BME280;9383;50.928;12.116;2022-11-15T14:51:33;98180.72;;;13.75;61.80
18509;BME280;9383;50.928;12.116;2022-11-15T14:54:00;98182.13;;;13.66;62.23
18509;BME280;9383;50.928;12.116;2022-11-15T14:56:27;98177.34;;;13.57;62.60
18509;BME280;9383;50.928;12.116;2022-11-15T14:58:54;98176.22;;;13.46;62.72
18509;BME280;9383;50.928;12.116;2022-11-15T15:01:24;98174.03;;;13.37;62.97
18509;BME280;9383;50.928;12.116;2022-11-15T15:03:52;98169.34;;;13.26;63.28
18509;BME280;9383;50.928;12.116;2022-11-15T15:06:21;98168.06;;;13.17;63.56
18509;BME280;9383;50.928;12.116;2022-11-15T15:08:47;98167.00;;;13.05;63.70
18509;BME280;9383;50.928;12.116;2022-11-15T15:11:25;98160.47;;;12.95;64.07
18509;BME280;9383;50.928;12.116;2022-11-15T15:13:54;98160.25;;;12.84;64.46
18509;BME280;9383;50.928;12.116;2022-11-15T15:16:24;98158.28;;;12.71;64.72
18509;BME280;9383;50.928;12.116;2022-11-15T15:18:51;98158.13;;;12.58;64.88
18509;BME280;9383;50.928;12.116;2022-11-15T15:23:51;98151.59;;;12.32;65.22
18509;BME280;9383;50.928;12.116;2022-11-15T15:26:19;98156.69;;;12.19;65.59